sensor_id;sensor_type;location;lat;lon;timestamp;temperature;humidity
13251;DHT22;6692;50.710;7.180;2022-11-20T00:01:47;5.80;99.90
13251;DHT22;6692;50.710;7.180;2022-11-20T00:03:48;5.80;99.90
13251;DHT22;6692;50.710;7.180;2022-11-20T00:05:49;5.80;99.90
13251;DHT22;6692;50.710;7.180;2022-11-20T00:07:49;5.80;99.90
13251;DHT22;6692;50.710;7.180;2022-11-20T00:09:50;5.80;99.90
13251;DHT22;6692;50.710;7.180;2022-11-20T00:11:51;5.80;99.90
13251;DHT22;6692;50.710;7.180;2022-11-20T00:13:52;5.80;99.90
13251;DHT22;6692;50.710;7.180;2022-11-20T00:15:57;5.80;99.90
13251;DHT22;6692;50.710;7.180;2022-11-20T00:17:57;5.80;99.90
13251;DHT22;6692;50.710;7.180;2022-11-20T00:19:58;5.80;99.90
13251;DHT22;6692;50.710;7.180;2022-11-20T00:21:59;5.80;99.90
13251;DHT22;6692;50.710;7.180;2022-11-20T00:24:01;5.70;99.90
13251;DHT22;6692;50.710;7.180;2022-11-20T00:26:03;5.70;99.90
13251;DHT22;6692;50.710;7.180;2022-11-20T00:28:03;5.70;99.90
13251;DHT22;6692;50.710;7.180;2022-11-20T00:30:05;5.60;99.90
13251;DHT22;6692;50.710;7.180;2022-11-20T00:32:06;5.60;99.90
13251;DHT22;6692;50.710;7.180;2022-11-20T00:34:08;5.60;99.90
13251;DHT22;6692;50.710;7.180;2022-11-20T00:36:09;5.50;99.90
13251;DHT22;6692;50.710;7.180;2022-11-20T00:38:09;5.50;99.90
13251;DHT22;6692;50.710;7.180;2022-11-20T00:40:11;5.60;99.90
13251;DHT22;6692;50.710;7.180;2022-11-20T00:42:11;5.50;99.90
13251;DHT22;6692;50.710;7.180;2022-11-20T00:44:12;5.50;99.90
13251;DHT22;6692;50.710;7.180;2022-11-20T00:46:14;5.50;99.90
13251;DHT22;6692;50.710;7.180;2022-11-20T00:48:14;5.40;99.90
13251;DHT22;6692;50.710;7.180;2022-11-20T00:50:15;5.40;99.90
13251;DHT22;6692;50.710;7.180;2022-11-20T00:52:16;5.40;99.90
13251;DHT22;6692;50.710;7.180;2022-11-20T00:54:17;5.40;99.90
13251;DHT22;6692;50.710;7.180;2022-11-20T00:56:18;5.30;99.90
13251;DHT22;6692;50.710;7.180;2022-11-20T00:58:18;5.40;99.90
13251;DHT22;6692;50.710;7.180;2022-11-20T01:00:19;5.30;99.90
13251;DHT22;6692;50.710;7.180;2022-11-20T01:02:20;5.40;99.90
13251;DHT22;6692;50.710;7.180;2022-11-20T01:04:20;5.40;99.90
13251;DHT22;6692;50.710;7.180;2022-11-20T01:06:23;5.40;99.90
13251;DHT22;6692;50.710;7.180;2022-11-20T01:08:23;5.40;99.90
13251;DHT22;6692;50.710;7.180;2022-11-20T01:10:23;5.40;99.90
13251;DHT22;6692;50.710;7.180;2022-11-20T01:12:24;5.40;99.90
13251;DHT22;6692;50.710;7.180;2022-11-20T01:14:24;5.40;99.90
13251;DHT22;6692;50.710;7.180;2022-11-20T01:16:27;5.40;99.90
13251;DHT22;6692;50.710;7.180;2022-11-20T01:18:26;5.50;99.90
13251;DHT22;6692;50.710;7.180;2022-11-20T01:20:26;5.50;99.90
13251;DHT22;6692;50.710;7.180;2022-11-20T01:22:27;5.50;99.90
13251;DHT22;6692;50.710;7.180;2022-11-20T01:24:28;5.50;99.90
13251;DHT22;6692;50.710;7.180;2022-11-20T01:26:30;5.50;99.90
13251;DHT22;6692;50.710;7.180;2022-11-20T01:28:29;5.50;99.90
13251;DHT22;6692;50.710;7.180;2022-11-20T01:30:30;5.40;99.90
13251;DHT22;6692;50.710;7.180;2022-11-20T01:32:31;5.40;99.90
13251;DHT22;6692;50.710;7.180;2022-11-20T01:34:32;5.40;99.90
13251;DHT22;6692;50.710;7.180;2022-11-20T01:36:33;5.30;99.90
13251;DHT22;6692;50.710;7.180;2022-11-20T01:38:34;5.30;99.90
13251;DHT22;6692;50.710;7.180;2022-11-20T01:40:35;5.30;99.90
13251;DHT22;6692;50.710;7.180;2022-11-20T01:42:35;5.40;99.90
13251;DHT22;6692;50.710;7.180;2022-11-20T01:44:58;5.40;99.90
13251;DHT22;6692;50.710;7.180;2022-11-20T01:46:59;5.40;99.90
13251;DHT22;6692;50.710;7.180;2022-11-20T01:49:02;5.40;99.90
13251;DHT22;6692;50.710;7.180;2022-11-20T01:51:02;5.40;99.90
13251;DHT22;6692;50.710;7.180;2022-11-20T01:53:04;5.30;99.90
13251;DHT22;6692;50.710;7.180;2022-11-20T01:55:07;5.40;99.90
13251;DHT22;6692;50.710;7.180;2022-11-20T01:57:06;5.40;99.90
13251;DHT22;6692;50.710;7.180;2022-11-20T01:59:07;5.40;99.90
13251;DHT22;6692;50.710;7.180;2022-11-20T02:01:07;5.30;99.90
13251;DHT22;6692;50.710;7.180;2022-11-20T02:03:10;5.40;99.90
13251;DHT22;6692;50.710;7.180;2022-11-20T02:05:17;5.30;99.90
13251;DHT22;6692;50.710;7.180;2022-11-20T02:07:16;5.30;99.90
13251;DHT22;6692;50.710;7.180;2022-11-20T02:09:16;5.30;99.90
13251;DHT22;6692;50.710;7.180;2022-11-20T02:11:17;5.30;99.90
13251;DHT22;6692;50.710;7.180;2022-11-20T02:13:18;5.20;99.90
13251;DHT22;6692;50.710;7.180;2022-11-20T02:15:24;5.20;99.90
13251;DHT22;6692;50.710;7.180;2022-11-20T02:17:25;5.30;99.90
13251;DHT22;6692;50.710;7.180;2022-11-20T02:19:27;5.20;99.90
13251;DHT22;6692;50.710;7.180;2022-11-20T02:21:32;5.30;99.90
13251;DHT22;6692;50.710;7.180;2022-11-20T02:23:32;5.30;99.90
13251;DHT22;6692;50.710;7.180;2022-11-20T02:25:31;5.30;99.90
13251;DHT22;6692;50.710;7.180;2022-11-20T02:27:31;5.30;99.90
13251;DHT22;6692;50.710;7.180;2022-11-20T02:29:36;5.40;99.90
13251;DHT22;6692;50.710;7.180;2022-11-20T02:31:37;5.40;99.90
13251;DHT22;6692;50.710;7.180;2022-11-20T02:33:37;5.40;99.90
13251;DHT22;6692;50.710;7.180;2022-11-20T02:35:39;5.40;99.90
13251;DHT22;6692;50.710;7.180;2022-11-20T02:37:39;5.40;99.90
13251;DHT22;6692;50.710;7.180;2022-11-20T02:39:40;5.50;99.90
13251;DHT22;6692;50.710;7.180;2022-11-20T02:41:40;5.50;99.90
13251;DHT22;6692;50.710;7.180;2022-11-20T02:43:41;5.50;99.90
13251;DHT22;6692;50.710;7.180;2022-11-20T02:45:42;5.50;99.90
13251;DHT22;6692;50.710;7.180;2022-11-20T02:47:43;5.40;99.90
13251;DHT22;6692;50.710;7.180;2022-11-20T02:49:44;5.40;99.90
13251;DHT22;6692;50.710;7.180;2022-11-20T02:51:44;5.40;99.90
13251;DHT22;6692;50.710;7.180;2022-11-20T02:53:45;5.50;99.90
13251;DHT22;6692;50.710;7.180;2022-11-20T02:55:46;5.40;99.90
13251;DHT22;6692;50.710;7.180;2022-11-20T02:57:46;5.40;99.90
13251;DHT22;6692;50.710;7.180;2022-11-20T02:59:47;5.40;99.90
13251;DHT22;6692;50.710;7.180;2022-11-20T03:01:48;5.40;99.90
13251;DHT22;6692;50.710;7.180;2022-11-20T03:03:48;5.40;99.90
13251;DHT22;6692;50.710;7.180;2022-11-20T03:05:49;5.40;99.90
13251;DHT22;6692;50.710;7.180;2022-11-20T03:07:50;5.40;99.90
13251;DHT22;6692;50.710;7.180;2022-11-20T03:09:50;5.40;99.90
13251;DHT22;6692;50.710;7.180;2022-11-20T03:11:51;5.40;99.90
13251;DHT22;6692;50.710;7.180;2022-11-20T03:13:52;5.40;99.90
13251;DHT22;6692;50.710;7.180;2022-11-20T03:15:52;5.40;99.90
13251;DHT22;6692;50.710;7.180;2022-11-20T03:17:53;5.40;99.90
13251;DHT22;6692;50.710;7.180;2022-11-20T03:19:54;5.40;99.90
13251;DHT22;6692;50.710;7.180;2022-11-20T03:21:55;5.50;99.90
13251;DHT22;6692;50.710;7.180;2022-11-20T03:23:56;5.50;99.90
13251;DHT22;6692;50.710;7.180;2022-11-20T03:26:06;5.50;99.90
13251;DHT22;6692;50.710;7.180;2022-11-20T03:27:58;5.60;99.90
13251;DHT22;6692;50.710;7.180;2022-11-20T03:30:00;5.50;99.90
13251;DHT22;6692;50.710;7.180;2022-11-20T03:32:01;5.50;99.90
13251;DHT22;6692;50.710;7.180;2022-11-20T03:34:02;5.50;99.90
13251;DHT22;6692;50.710;7.180;2022-11-20T03:36:03;5.50;99.90
13251;DHT22;6692;50.710;7.180;2022-11-20T03:38:03;5.60;99.90
13251;DHT22;6692;50.710;7.180;2022-11-20T03:40:05;5.60;99.90
13251;DHT22;6692;50.710;7.180;2022-11-20T03:42:05;5.60;99.90
13251;DHT22;6692;50.710;7.180;2022-11-20T03:44:07;5.60;99.90
13251;DHT22;6692;50.710;7.180;2022-11-20T03:46:07;5.50;99.90
13251;DHT22;6692;50.710;7.180;2022-11-20T03:48:07;5.50;99.90
13251;DHT22;6692;50.710;7.180;2022-11-20T03:50:09;5.50;99.90
13251;DHT22;6692;50.710;7.180;2022-11-20T03:52:10;5.50;99.90
13251;DHT22;6692;50.710;7.180;2022-11-20T03:54:10;5.50;99.90
13251;DHT22;6692;50.710;7.180;2022-11-20T03:56:12;5.50;99.90
13251;DHT22;6692;50.710;7.180;2022-11-20T03:58:12;5.50;99.90
13251;DHT22;6692;50.710;7.180;2022-11-20T04:00:14;5.50;99.90
13251;DHT22;6692;50.710;7.180;2022-11-20T04:02:15;5.50;99.90
13251;DHT22;6692;50.710;7.180;2022-11-20T04:04:16;5.60;99.90
13251;DHT22;6692;50.710;7.180;2022-11-20T04:06:20;5.50;99.90
13251;DHT22;6692;50.710;7.180;2022-11-20T04:08:20;5.60;99.90
13251;DHT22;6692;50.710;7.180;2022-11-20T04:10:21;5.60;99.90
13251;DHT22;6692;50.710;7.180;2022-11-20T04:12:22;5.60;99.90
13251;DHT22;6692;50.710;7.180;2022-11-20T04:14:23;5.70;99.90
13251;DHT22;6692;50.710;7.180;2022-11-20T04:16:24;5.70;99.90
13251;DHT22;6692;50.710;7.180;2022-11-20T04:18:24;5.70;99.90
13251;DHT22;6692;50.710;7.180;2022-11-20T04:20:25;5.70;99.90
13251;DHT22;6692;50.710;7.180;2022-11-20T04:22:25;5.70;99.90
13251;DHT22;6692;50.710;7.180;2022-11-20T04:24:26;5.70;99.90
13251;DHT22;6692;50.710;7.180;2022-11-20T04:26:27;5.70;99.90
13251;DHT22;6692;50.710;7.180;2022-11-20T04:28:27;5.80;99.90
13251;DHT22;6692;50.710;7.180;2022-11-20T04:30:28;5.80;99.90
13251;DHT22;6692;50.710;7.180;2022-11-20T04:32:29;5.80;99.90
13251;DHT22;6692;50.710;7.180;2022-11-20T04:34:30;5.80;99.90
13251;DHT22;6692;50.710;7.180;2022-11-20T04:36:31;5.70;99.90
13251;DHT22;6692;50.710;7.180;2022-11-20T04:38:31;5.80;99.90
13251;DHT22;6692;50.710;7.180;2022-11-20T04:40:32;5.80;99.90
13251;DHT22;6692;50.710;7.180;2022-11-20T04:42:33;5.80;99.90
13251;DHT22;6692;50.710;7.180;2022-11-20T04:44:34;5.80;99.90
13251;DHT22;6692;50.710;7.180;2022-11-20T04:46:37;5.80;99.90
13251;DHT22;6692;50.710;7.180;2022-11-20T04:48:36;5.90;99.90
13251;DHT22;6692;50.710;7.180;2022-11-20T04:50:39;5.90;99.90
13251;DHT22;6692;50.710;7.180;2022-11-20T04:52:38;5.90;99.90
13251;DHT22;6692;50.710;7.180;2022-11-20T04:54:38;5.90;99.90
13251;DHT22;6692;50.710;7.180;2022-11-20T04:56:39;5.90;99.90
13251;DHT22;6692;50.710;7.180;2022-11-20T04:58:40;5.90;99.90
13251;DHT22;6692;50.710;7.180;2022-11-20T05:00:40;5.90;99.90
13251;DHT22;6692;50.710;7.180;2022-11-20T05:02:41;5.90;99.90
13251;DHT22;6692;50.710;7.180;2022-11-20T05:04:42;5.90;99.90
13251;DHT22;6692;50.710;7.180;2022-11-20T05:06:42;5.80;99.90
13251;DHT22;6692;50.710;7.180;2022-11-20T05:08:43;5.80;99.90
13251;DHT22;6692;50.710;7.180;2022-11-20T05:10:44;5.80;99.90
13251;DHT22;6692;50.710;7.180;2022-11-20T05:12:44;5.80;99.90
13251;DHT22;6692;50.710;7.180;2022-11-20T05:14:45;5.70;99.90
13251;DHT22;6692;50.710;7.180;2022-11-20T05:16:45;5.70;99.90
13251;DHT22;6692;50.710;7.180;2022-11-20T05:18:47;5.80;99.90
13251;DHT22;6692;50.710;7.180;2022-11-20T05:20:54;5.80;99.90
13251;DHT22;6692;50.710;7.180;2022-11-20T05:22:48;5.80;99.90
13251;DHT22;6692;50.710;7.180;2022-11-20T05:24:49;5.80;99.90
13251;DHT22;6692;50.710;7.180;2022-11-20T05:26:50;5.70;99.90
13251;DHT22;6692;50.710;7.180;2022-11-20T05:28:50;5.70;99.90
13251;DHT22;6692;50.710;7.180;2022-11-20T05:30:51;5.80;99.90
13251;DHT22;6692;50.710;7.180;2022-11-20T05:32:52;5.80;99.90
13251;DHT22;6692;50.710;7.180;2022-11-20T05:34:53;5.80;99.90
13251;DHT22;6692;50.710;7.180;2022-11-20T05:36:54;5.80;99.90
13251;DHT22;6692;50.710;7.180;2022-11-20T05:38:55;5.80;99.90
13251;DHT22;6692;50.710;7.180;2022-11-20T05:41:02;5.80;99.90
13251;DHT22;6692;50.710;7.180;2022-11-20T05:42:56;5.80;99.90
13251;DHT22;6692;50.710;7.180;2022-11-20T05:44:59;5.80;99.90
13251;DHT22;6692;50.710;7.180;2022-11-20T05:47:00;5.80;99.90
13251;DHT22;6692;50.710;7.180;2022-11-20T05:49:00;5.80;99.90
13251;DHT22;6692;50.710;7.180;2022-11-20T05:51:02;5.80;99.90
13251;DHT22;6692;50.710;7.180;2022-11-20T05:53:02;5.80;99.90
13251;DHT22;6692;50.710;7.180;2022-11-20T05:55:03;5.70;99.90
13251;DHT22;6692;50.710;7.180;2022-11-20T05:57:04;5.80;99.90
13251;DHT22;6692;50.710;7.180;2022-11-20T05:59:04;5.80;99.90
13251;DHT22;6692;50.710;7.180;2022-11-20T06:01:07;5.80;99.90
13251;DHT22;6692;50.710;7.180;2022-11-20T06:03:06;5.80;99.90
13251;DHT22;6692;50.710;7.180;2022-11-20T06:05:08;5.80;99.90
13251;DHT22;6692;50.710;7.180;2022-11-20T06:07:08;5.70;99.90
13251;DHT22;6692;50.710;7.180;2022-11-20T06:09:09;5.80;99.90
13251;DHT22;6692;50.710;7.180;2022-11-20T06:11:10;5.70;99.90
13251;DHT22;6692;50.710;7.180;2022-11-20T06:13:10;5.80;99.90
13251;DHT22;6692;50.710;7.180;2022-11-20T06:15:11;5.80;99.90
13251;DHT22;6692;50.710;7.180;2022-11-20T06:17:13;5.70;99.90
13251;DHT22;6692;50.710;7.180;2022-11-20T06:19:13;5.70;99.90
13251;DHT22;6692;50.710;7.180;2022-11-20T06:21:17;5.70;99.90
13251;DHT22;6692;50.710;7.180;2022-11-20T06:23:17;5.70;99.90
13251;DHT22;6692;50.710;7.180;2022-11-20T06:25:17;5.70;99.90
13251;DHT22;6692;50.710;7.180;2022-11-20T06:27:18;5.80;99.90
13251;DHT22;6692;50.710;7.180;2022-11-20T06:29:18;5.80;99.90
13251;DHT22;6692;50.710;7.180;2022-11-20T06:31:20;5.80;99.90
13251;DHT22;6692;50.710;7.180;2022-11-20T06:33:20;5.90;99.90
13251;DHT22;6692;50.710;7.180;2022-11-20T06:35:20;5.90;99.90
13251;DHT22;6692;50.710;7.180;2022-11-20T06:37:21;5.90;99.90
13251;DHT22;6692;50.710;7.180;2022-11-20T06:39:22;5.90;99.90
13251;DHT22;6692;50.710;7.180;2022-11-20T06:41:22;6.00;99.90
13251;DHT22;6692;50.710;7.180;2022-11-20T06:43:23;6.00;99.90
13251;DHT22;6692;50.710;7.180;2022-11-20T06:45:24;6.00;99.90
13251;DHT22;6692;50.710;7.180;2022-11-20T06:47:24;6.10;99.90
13251;DHT22;6692;50.710;7.180;2022-11-20T06:49:27;6.10;99.90
13251;DHT22;6692;50.710;7.180;2022-11-20T06:51:27;6.10;99.90
13251;DHT22;6692;50.710;7.180;2022-11-20T06:53:28;6.10;99.90
13251;DHT22;6692;50.710;7.180;2022-11-20T06:55:29;6.10;99.90
13251;DHT22;6692;50.710;7.180;2022-11-20T06:57:29;6.10;99.90
13251;DHT22;6692;50.710;7.180;2022-11-20T06:59:30;6.10;99.90
13251;DHT22;6692;50.710;7.180;2022-11-20T07:01:31;6.10;99.90
13251;DHT22;6692;50.710;7.180;2022-11-20T07:03:31;6.10;99.90
13251;DHT22;6692;50.710;7.180;2022-11-20T07:05:32;6.10;99.90
13251;DHT22;6692;50.710;7.180;2022-11-20T07:07:33;6.10;99.90
13251;DHT22;6692;50.710;7.180;2022-11-20T07:09:33;6.10;99.90
13251;DHT22;6692;50.710;7.180;2022-11-20T07:11:34;6.10;99.90
13251;DHT22;6692;50.710;7.180;2022-11-20T07:13:35;6.10;99.90
13251;DHT22;6692;50.710;7.180;2022-11-20T07:15:36;6.20;99.90
13251;DHT22;6692;50.710;7.180;2022-11-20T07:17:37;6.10;99.90
13251;DHT22;6692;50.710;7.180;2022-11-20T07:19:37;6.20;99.90
13251;DHT22;6692;50.710;7.180;2022-11-20T07:21:38;6.20;99.90
13251;DHT22;6692;50.710;7.180;2022-11-20T07:23:39;6.20;99.90
13251;DHT22;6692;50.710;7.180;2022-11-20T07:25:39;6.20;99.90
13251;DHT22;6692;50.710;7.180;2022-11-20T07:27:40;6.20;99.90
13251;DHT22;6692;50.710;7.180;2022-11-20T07:29:41;6.20;99.90
13251;DHT22;6692;50.710;7.180;2022-11-20T07:31:42;6.20;99.90
13251;DHT22;6692;50.710;7.180;2022-11-20T07:33:43;6.20;99.90
13251;DHT22;6692;50.710;7.180;2022-11-20T07:35:44;6.20;99.90
13251;DHT22;6692;50.710;7.180;2022-11-20T07:37:44;6.20;99.90
13251;DHT22;6692;50.710;7.180;2022-11-20T07:39:45;6.20;99.90
13251;DHT22;6692;50.710;7.180;2022-11-20T07:41:45;6.20;99.90
13251;DHT22;6692;50.710;7.180;2022-11-20T07:43:47;6.20;99.90
13251;DHT22;6692;50.710;7.180;2022-11-20T07:45:48;6.20;99.90
13251;DHT22;6692;50.710;7.180;2022-11-20T07:47:48;6.20;99.90
13251;DHT22;6692;50.710;7.180;2022-11-20T07:49:49;6.20;99.90
13251;DHT22;6692;50.710;7.180;2022-11-20T07:51:50;6.20;99.90
13251;DHT22;6692;50.710;7.180;2022-11-20T07:53:51;6.20;99.90
13251;DHT22;6692;50.710;7.180;2022-11-20T07:55:51;6.20;99.90
13251;DHT22;6692;50.710;7.180;2022-11-20T07:57:54;6.20;99.90
13251;DHT22;6692;50.710;7.180;2022-11-20T07:59:55;6.20;99.90
13251;DHT22;6692;50.710;7.180;2022-11-20T08:01:56;6.20;99.90
13251;DHT22;6692;50.710;7.180;2022-11-20T08:03:57;6.20;99.90
13251;DHT22;6692;50.710;7.180;2022-11-20T08:05:59;6.30;99.90
13251;DHT22;6692;50.710;7.180;2022-11-20T08:07:59;6.30;99.90
13251;DHT22;6692;50.710;7.180;2022-11-20T08:10:00;6.30;99.90
13251;DHT22;6692;50.710;7.180;2022-11-20T08:12:00;6.30;99.90
13251;DHT22;6692;50.710;7.180;2022-11-20T08:14:07;6.30;99.90
13251;DHT22;6692;50.710;7.180;2022-11-20T08:16:12;6.30;99.90
13251;DHT22;6692;50.710;7.180;2022-11-20T08:18:13;6.30;99.90
13251;DHT22;6692;50.710;7.180;2022-11-20T08:20:14;6.30;99.90
13251;DHT22;6692;50.710;7.180;2022-11-20T08:22:14;6.30;99.90
13251;DHT22;6692;50.710;7.180;2022-11-20T08:24:16;6.50;99.90
13251;DHT22;6692;50.710;7.180;2022-11-20T08:26:17;6.50;99.90
13251;DHT22;6692;50.710;7.180;2022-11-20T08:28:17;6.50;99.90
13251;DHT22;6692;50.710;7.180;2022-11-20T08:30:18;6.60;99.90
13251;DHT22;6692;50.710;7.180;2022-11-20T08:32:18;6.60;99.90
13251;DHT22;6692;50.710;7.180;2022-11-20T08:34:19;6.70;99.90
13251;DHT22;6692;50.710;7.180;2022-11-20T08:36:20;6.80;99.90
13251;DHT22;6692;50.710;7.180;2022-11-20T08:38:20;6.80;99.90
13251;DHT22;6692;50.710;7.180;2022-11-20T08:40:21;6.80;99.90
13251;DHT22;6692;50.710;7.180;2022-11-20T08:42:22;6.80;99.90
13251;DHT22;6692;50.710;7.180;2022-11-20T08:44:22;6.90;99.90
13251;DHT22;6692;50.710;7.180;2022-11-20T08:46:24;7.10;99.90
13251;DHT22;6692;50.710;7.180;2022-11-20T08:48:25;7.30;99.90
13251;DHT22;6692;50.710;7.180;2022-11-20T08:50:26;7.30;99.90
13251;DHT22;6692;50.710;7.180;2022-11-20T08:52:27;7.40;99.90
13251;DHT22;6692;50.710;7.180;2022-11-20T08:54:27;7.40;99.90
13251;DHT22;6692;50.710;7.180;2022-11-20T08:56:28;7.40;99.90
13251;DHT22;6692;50.710;7.180;2022-11-20T08:58:29;7.40;99.90
13251;DHT22;6692;50.710;7.180;2022-11-20T09:00:29;7.40;99.90
13251;DHT22;6692;50.710;7.180;2022-11-20T09:02:31;7.40;99.90
13251;DHT22;6692;50.710;7.180;2022-11-20T09:04:32;7.40;99.90
13251;DHT22;6692;50.710;7.180;2022-11-20T09:06:33;7.40;99.90
13251;DHT22;6692;50.710;7.180;2022-11-20T09:08:34;7.30;99.90
13251;DHT22;6692;50.710;7.180;2022-11-20T09:10:34;7.30;99.90
13251;DHT22;6692;50.710;7.180;2022-11-20T09:12:35;7.30;99.90
13251;DHT22;6692;50.710;7.180;2022-11-20T09:14:35;7.20;99.90
13251;DHT22;6692;50.710;7.180;2022-11-20T09:16:36;7.20;99.90
13251;DHT22;6692;50.710;7.180;2022-11-20T09:18:37;7.20;99.90
13251;DHT22;6692;50.710;7.180;2022-11-20T09:20:37;7.20;99.90
13251;DHT22;6692;50.710;7.180;2022-11-20T09:22:39;7.30;99.90
13251;DHT22;6692;50.710;7.180;2022-11-20T09:24:39;7.40;99.90
13251;DHT22;6692;50.710;7.180;2022-11-20T09:26:39;7.50;99.90
13251;DHT22;6692;50.710;7.180;2022-11-20T09:28:40;7.70;99.90
13251;DHT22;6692;50.710;7.180;2022-11-20T09:30:41;7.80;99.90
13251;DHT22;6692;50.710;7.180;2022-11-20T09:32:42;7.90;99.90
13251;DHT22;6692;50.710;7.180;2022-11-20T09:34:43;8.00;99.90
13251;DHT22;6692;50.710;7.180;2022-11-20T09:36:43;8.00;99.90
13251;DHT22;6692;50.710;7.180;2022-11-20T09:38:45;8.00;99.90
13251;DHT22;6692;50.710;7.180;2022-11-20T09:40:46;8.00;99.90
13251;DHT22;6692;50.710;7.180;2022-11-20T09:43:00;8.00;99.90
13251;DHT22;6692;50.710;7.180;2022-11-20T09:45:13;8.10;99.90
13251;DHT22;6692;50.710;7.180;2022-11-20T09:47:37;8.20;99.90
13251;DHT22;6692;50.710;7.180;2022-11-20T09:50:01;8.30;99.90
13251;DHT22;6692;50.710;7.180;2022-11-20T09:51:59;8.40;99.90
13251;DHT22;6692;50.710;7.180;2022-11-20T09:56:08;8.40;99.90
13251;DHT22;6692;50.710;7.180;2022-11-20T09:58:13;8.40;99.90
13251;DHT22;6692;50.710;7.180;2022-11-20T10:00:12;8.40;99.90
13251;DHT22;6692;50.710;7.180;2022-11-20T10:04:52;8.20;99.90
13251;DHT22;6692;50.710;7.180;2022-11-20T10:07:02;8.20;99.90
13251;DHT22;6692;50.710;7.180;2022-11-20T10:09:18;8.20;99.90
13251;DHT22;6692;50.710;7.180;2022-11-20T10:11:46;8.20;99.90
13251;DHT22;6692;50.710;7.180;2022-11-20T10:13:56;7.90;99.90
13251;DHT22;6692;50.710;7.180;2022-11-20T10:20:43;7.80;99.90
13251;DHT22;6692;50.710;7.180;2022-11-20T10:23:51;7.90;99.90
13251;DHT22;6692;50.710;7.180;2022-11-20T10:28:29;8.30;99.90
13251;DHT22;6692;50.710;7.180;2022-11-20T10:29:38;8.30;99.90
13251;DHT22;6692;50.710;7.180;2022-11-20T10:31:40;8.20;99.90
13251;DHT22;6692;50.710;7.180;2022-11-20T10:33:41;8.20;99.90
13251;DHT22;6692;50.710;7.180;2022-11-20T10:35:57;8.10;99.90
13251;DHT22;6692;50.710;7.180;2022-11-20T10:37:58;8.20;99.90
13251;DHT22;6692;50.710;7.180;2022-11-20T10:40:19;8.20;99.90
13251;DHT22;6692;50.710;7.180;2022-11-20T10:42:24;8.30;99.90
13251;DHT22;6692;50.710;7.180;2022-11-20T10:44:22;8.30;99.90
13251;DHT22;6692;50.710;7.180;2022-11-20T10:46:30;8.40;99.90
13251;DHT22;6692;50.710;7.180;2022-11-20T10:48:30;8.40;99.90
13251;DHT22;6692;50.710;7.180;2022-11-20T10:50:29;8.30;99.90
13251;DHT22;6692;50.710;7.180;2022-11-20T10:53:08;8.30;99.90
13251;DHT22;6692;50.710;7.180;2022-11-20T10:54:53;8.30;99.90
13251;DHT22;6692;50.710;7.180;2022-11-20T10:56:51;8.40;99.90
13251;DHT22;6692;50.710;7.180;2022-11-20T10:58:58;8.30;99.90
13251;DHT22;6692;50.710;7.180;2022-11-20T11:01:02;8.40;99.90
13251;DHT22;6692;50.710;7.180;2022-11-20T11:02:54;8.40;99.90
13251;DHT22;6692;50.710;7.180;2022-11-20T11:04:54;8.50;99.90
13251;DHT22;6692;50.710;7.180;2022-11-20T11:06:57;8.40;99.90
13251;DHT22;6692;50.710;7.180;2022-11-20T11:08:56;8.40;99.90
13251;DHT22;6692;50.710;7.180;2022-11-20T11:10:57;8.40;99.90
13251;DHT22;6692;50.710;7.180;2022-11-20T11:12:57;8.40;99.90
13251;DHT22;6692;50.710;7.180;2022-11-20T11:14:58;8.40;99.90
13251;DHT22;6692;50.710;7.180;2022-11-20T11:16:59;8.40;99.90
13251;DHT22;6692;50.710;7.180;2022-11-20T11:19:04;8.50;99.90
13251;DHT22;6692;50.710;7.180;2022-11-20T11:21:05;8.50;99.90
13251;DHT22;6692;50.710;7.180;2022-11-20T11:23:10;8.50;99.90
13251;DHT22;6692;50.710;7.180;2022-11-20T11:25:07;8.60;99.90
13251;DHT22;6692;50.710;7.180;2022-11-20T11:27:12;8.70;99.90
13251;DHT22;6692;50.710;7.180;2022-11-20T11:29:16;8.90;99.90
13251;DHT22;6692;50.710;7.180;2022-11-20T11:31:21;8.90;99.90
13251;DHT22;6692;50.710;7.180;2022-11-20T11:33:20;9.00;99.90
13251;DHT22;6692;50.710;7.180;2022-11-20T11:35:23;8.90;99.90
13251;DHT22;6692;50.710;7.180;2022-11-20T11:37:22;9.00;99.90
13251;DHT22;6692;50.710;7.180;2022-11-20T11:39:23;9.10;99.90
13251;DHT22;6692;50.710;7.180;2022-11-20T11:41:28;9.20;99.90
13251;DHT22;6692;50.710;7.180;2022-11-20T11:43:26;9.30;99.90
13251;DHT22;6692;50.710;7.180;2022-11-20T11:45:32;9.40;99.90
13251;DHT22;6692;50.710;7.180;2022-11-20T11:47:36;9.40;99.90
13251;DHT22;6692;50.710;7.180;2022-11-20T11:49:36;9.40;99.90
13251;DHT22;6692;50.710;7.180;2022-11-20T11:51:39;9.40;99.90
13251;DHT22;6692;50.710;7.180;2022-11-20T11:53:39;9.30;99.90
13251;DHT22;6692;50.710;7.180;2022-11-20T11:55:45;9.20;99.90
13251;DHT22;6692;50.710;7.180;2022-11-20T11:57:49;9.30;99.90
13251;DHT22;6692;50.710;7.180;2022-11-20T11:59:59;9.30;99.90
13251;DHT22;6692;50.710;7.180;2022-11-20T12:01:57;9.40;99.90
13251;DHT22;6692;50.710;7.180;2022-11-20T12:04:10;9.40;99.90
13251;DHT22;6692;50.710;7.180;2022-11-20T12:06:10;9.40;99.90
13251;DHT22;6692;50.710;7.180;2022-11-20T12:08:16;9.30;99.90
13251;DHT22;6692;50.710;7.180;2022-11-20T12:10:22;9.20;99.90
13251;DHT22;6692;50.710;7.180;2022-11-20T12:12:24;9.30;99.90
13251;DHT22;6692;50.710;7.180;2022-11-20T12:14:40;9.40;99.90
13251;DHT22;6692;50.710;7.180;2022-11-20T12:16:40;9.50;99.90
13251;DHT22;6692;50.710;7.180;2022-11-20T12:18:42;9.80;99.90
13251;DHT22;6692;50.710;7.180;2022-11-20T12:20:45;9.70;99.90
13251;DHT22;6692;50.710;7.180;2022-11-20T12:23:02;9.90;99.90
13251;DHT22;6692;50.710;7.180;2022-11-20T12:25:12;9.90;99.90
13251;DHT22;6692;50.710;7.180;2022-11-20T12:29:43;9.90;99.90
13251;DHT22;6692;50.710;7.180;2022-11-20T12:33:58;9.90;99.90
13251;DHT22;6692;50.710;7.180;2022-11-20T12:36:19;9.90;99.90
13251;DHT22;6692;50.710;7.180;2022-11-20T12:38:26;10.00;99.90
13251;DHT22;6692;50.710;7.180;2022-11-20T12:40:35;10.00;99.90
13251;DHT22;6692;50.710;7.180;2022-11-20T12:42:43;10.00;99.90
13251;DHT22;6692;50.710;7.180;2022-11-20T12:45:10;10.00;99.90
13251;DHT22;6692;50.710;7.180;2022-11-20T12:47:34;10.00;99.90
13251;DHT22;6692;50.710;7.180;2022-11-20T12:49:53;10.10;99.90
13251;DHT22;6692;50.710;7.180;2022-11-20T12:52:27;10.00;99.90
13251;DHT22;6692;50.710;7.180;2022-11-20T12:54:23;10.10;99.90
13251;DHT22;6692;50.710;7.180;2022-11-20T12:56:21;10.00;99.90
13251;DHT22;6692;50.710;7.180;2022-11-20T12:58:44;10.00;99.90
13251;DHT22;6692;50.710;7.180;2022-11-20T13:01:00;10.00;99.90
13251;DHT22;6692;50.710;7.180;2022-11-20T13:03:26;9.80;99.90
13251;DHT22;6692;50.710;7.180;2022-11-20T13:05:27;9.80;99.90
13251;DHT22;6692;50.710;7.180;2022-11-20T13:07:25;9.60;99.90
13251;DHT22;6692;50.710;7.180;2022-11-20T13:09:26;9.60;99.90
13251;DHT22;6692;50.710;7.180;2022-11-20T13:11:33;9.60;99.90
13251;DHT22;6692;50.710;7.180;2022-11-20T13:15:55;9.60;99.90
13251;DHT22;6692;50.710;7.180;2022-11-20T13:17:55;9.60;99.90
13251;DHT22;6692;50.710;7.180;2022-11-20T13:19:56;9.70;99.90
13251;DHT22;6692;50.710;7.180;2022-11-20T13:21:56;9.60;99.90
13251;DHT22;6692;50.710;7.180;2022-11-20T13:24:04;9.80;99.90
13251;DHT22;6692;50.710;7.180;2022-11-20T13:26:13;9.80;99.90
13251;DHT22;6692;50.710;7.180;2022-11-20T13:28:26;9.80;99.90
13251;DHT22;6692;50.710;7.180;2022-11-20T13:30:26;9.90;99.90
13251;DHT22;6692;50.710;7.180;2022-11-20T13:32:27;9.90;99.90
13251;DHT22;6692;50.710;7.180;2022-11-20T13:34:28;9.90;99.90
13251;DHT22;6692;50.710;7.180;2022-11-20T13:36:30;10.00;99.90
13251;DHT22;6692;50.710;7.180;2022-11-20T13:40:51;9.90;99.90